sensor_id;sensor_type;location;lat;lon;timestamp;pressure;altitude;pressure_sealevel;temperature;humidity
62946;BME280;52164;52.212;-1.010;2022-11-06T00:01:07;99863.36;;;9.07;85.05
62946;BME280;52164;52.212;-1.010;2022-11-06T00:03:33;99861.06;;;9.03;85.05
62946;BME280;52164;52.212;-1.010;2022-11-06T00:05:58;99862.32;;;9.00;85.12
62946;BME280;52164;52.212;-1.010;2022-11-06T00:08:43;99860.19;;;8.99;85.32
62946;BME280;52164;52.212;-1.010;2022-11-06T00:11:11;99854.85;;;8.97;85.53
62946;BME280;52164;52.212;-1.010;2022-11-06T00:13:38;99856.98;;;8.98;85.51
62946;BME280;52164;52.212;-1.010;2022-11-06T00:16:06;99857.15;;;9.00;85.58
62946;BME280;52164;52.212;-1.010;2022-11-06T00:18:32;99852.34;;;9.03;85.33
62946;BME280;52164;52.212;-1.010;2022-11-06T00:20:58;99842.20;;;9.03;85.43
62946;BME280;52164;52.212;-1.010;2022-11-06T00:23:24;99836.49;;;9.04;85.50
62946;BME280;52164;52.212;-1.010;2022-11-06T00:25:50;99834.16;;;9.06;85.41
62946;BME280;52164;52.212;-1.010;2022-11-06T00:28:21;99831.50;;;9.06;85.26
62946;BME280;52164;52.212;-1.010;2022-11-06T00:30:46;99834.20;;;9.01;85.20
62946;BME280;52164;52.212;-1.010;2022-11-06T00:33:12;99832.81;;;8.92;85.15
62946;BME280;52164;52.212;-1.010;2022-11-06T00:35:38;99829.11;;;8.82;85.08
62946;BME280;52164;52.212;-1.010;2022-11-06T00:38:04;99826.64;;;8.75;85.42
62946;BME280;52164;52.212;-1.010;2022-11-06T00:40:30;99828.42;;;8.72;85.58
62946;BME280;52164;52.212;-1.010;2022-11-06T00:42:56;99830.20;;;8.72;85.84
62946;BME280;52164;52.212;-1.010;2022-11-06T00:45:24;99829.33;;;8.71;85.65
62946;BME280;52164;52.212;-1.010;2022-11-06T00:47:49;99824.16;;;8.71;85.62
62946;BME280;52164;52.212;-1.010;2022-11-06T00:50:15;99823.09;;;8.72;85.82
62946;BME280;52164;52.212;-1.010;2022-11-06T00:52:42;99816.89;;;8.71;85.51
62946;BME280;52164;52.212;-1.010;2022-11-06T00:55:08;99814.20;;;8.70;85.58
62946;BME280;52164;52.212;-1.010;2022-11-06T00:57:33;99819.72;;;8.69;85.48
62946;BME280;52164;52.212;-1.010;2022-11-06T00:59:59;99815.81;;;8.69;85.52
62946;BME280;52164;52.212;-1.010;2022-11-06T01:02:24;99813.15;;;8.68;85.24
62946;BME280;52164;52.212;-1.010;2022-11-06T01:04:50;99811.17;;;8.69;85.25
62946;BME280;52164;52.212;-1.010;2022-11-06T01:07:15;99796.96;;;8.68;85.31
62946;BME280;52164;52.212;-1.010;2022-11-06T01:09:41;99795.90;;;8.66;85.36
62946;BME280;52164;52.212;-1.010;2022-11-06T01:12:06;99787.90;;;8.66;85.26
62946;BME280;52164;52.212;-1.010;2022-11-06T01:14:32;99783.46;;;8.64;85.24
62946;BME280;52164;52.212;-1.010;2022-11-06T01:16:57;99782.93;;;8.60;85.28
62946;BME280;52164;52.212;-1.010;2022-11-06T01:19:23;99778.86;;;8.58;85.32
62946;BME280;52164;52.212;-1.010;2022-11-06T01:21:50;99780.11;;;8.56;85.45
62946;BME280;52164;52.212;-1.010;2022-11-06T01:24:21;99778.33;;;8.55;85.21
62946;BME280;52164;52.212;-1.010;2022-11-06T01:26:47;99783.13;;;8.54;85.16
62946;BME280;52164;52.212;-1.010;2022-11-06T01:29:15;99786.18;;;8.51;84.69
62946;BME280;52164;52.212;-1.010;2022-11-06T01:31:41;99781.73;;;8.47;84.46
62946;BME280;52164;52.212;-1.010;2022-11-06T01:34:07;99781.21;;;8.44;84.68
62946;BME280;52164;52.212;-1.010;2022-11-06T01:36:33;99781.20;;;8.47;85.12
62946;BME280;52164;52.212;-1.010;2022-11-06T01:39:04;99785.12;;;8.50;85.04
62946;BME280;52164;52.212;-1.010;2022-11-06T01:41:35;99785.80;;;8.53;85.00
62946;BME280;52164;52.212;-1.010;2022-11-06T01:46:50;99776.92;;;8.49;84.47
62946;BME280;52164;52.212;-1.010;2022-11-06T01:49:16;99771.60;;;8.48;84.61
62946;BME280;52164;52.212;-1.010;2022-11-06T01:51:52;99772.14;;;8.48;84.80
62946;BME280;52164;52.212;-1.010;2022-11-06T01:54:20;99771.06;;;8.51;84.91
62946;BME280;52164;52.212;-1.010;2022-11-06T01:56:48;99768.72;;;8.54;85.11
62946;BME280;52164;52.212;-1.010;2022-11-06T01:59:17;99764.98;;;8.57;85.29
62946;BME280;52164;52.212;-1.010;2022-11-06T02:01:44;99760.16;;;8.63;85.25
62946;BME280;52164;52.212;-1.010;2022-11-06T02:04:16;99758.34;;;8.69;85.48
62946;BME280;52164;52.212;-1.010;2022-11-06T02:06:44;99752.45;;;8.76;85.71
62946;BME280;52164;52.212;-1.010;2022-11-06T02:09:11;99755.98;;;8.81;85.46
62946;BME280;52164;52.212;-1.010;2022-11-06T02:11:38;99750.61;;;8.87;85.30
62946;BME280;52164;52.212;-1.010;2022-11-06T02:14:34;99748.81;;;8.92;85.23
62946;BME280;52164;52.212;-1.010;2022-11-06T02:22:17;99721.94;;;8.93;84.42
62946;BME280;52164;52.212;-1.010;2022-11-06T02:27:20;99711.82;;;8.88;84.51
62946;BME280;52164;52.212;-1.010;2022-11-06T02:30:07;99702.77;;;8.84;84.30
62946;BME280;52164;52.212;-1.010;2022-11-06T02:35:03;99697.52;;;8.71;84.09
62946;BME280;52164;52.212;-1.010;2022-11-06T02:37:36;99687.40;;;8.65;84.21
62946;BME280;52164;52.212;-1.010;2022-11-06T02:40:06;99678.17;;;8.62;84.65
62946;BME280;52164;52.212;-1.010;2022-11-06T02:42:36;99668.76;;;8.60;85.03
62946;BME280;52164;52.212;-1.010;2022-11-06T02:45:08;99669.98;;;8.62;85.25
62946;BME280;52164;52.212;-1.010;2022-11-06T02:47:35;99660.39;;;8.62;85.16
62946;BME280;52164;52.212;-1.010;2022-11-06T02:52:35;99654.88;;;8.58;84.73
62946;BME280;52164;52.212;-1.010;2022-11-06T02:55:07;99656.34;;;8.53;84.37
62946;BME280;52164;52.212;-1.010;2022-11-06T02:57:34;99653.16;;;8.47;84.14
62946;BME280;52164;52.212;-1.010;2022-11-06T03:00:06;99651.92;;;8.39;83.83
62946;BME280;52164;52.212;-1.010;2022-11-06T03:02:35;99649.13;;;8.30;83.59
62946;BME280;52164;52.212;-1.010;2022-11-06T03:05:05;99648.65;;;8.19;83.44
62946;BME280;52164;52.212;-1.010;2022-11-06T03:07:39;99648.69;;;8.10;83.91
62946;BME280;52164;52.212;-1.010;2022-11-06T03:10:08;99644.98;;;8.04;84.02
62946;BME280;52164;52.212;-1.010;2022-11-06T03:13:19;99642.32;;;7.99;83.76
62946;BME280;52164;52.212;-1.010;2022-11-06T03:15:33;99642.18;;;7.91;83.60
62946;BME280;52164;52.212;-1.010;2022-11-06T03:20:36;99644.16;;;7.77;83.72
62946;BME280;52164;52.212;-1.010;2022-11-06T03:23:25;99647.02;;;7.70;83.72
62946;BME280;52164;52.212;-1.010;2022-11-06T03:25:55;99647.76;;;7.61;83.36
62946;BME280;52164;52.212;-1.010;2022-11-06T03:28:30;99637.83;;;7.53;83.29
62946;BME280;52164;52.212;-1.010;2022-11-06T03:31:02;99635.17;;;7.47;83.28
62946;BME280;52164;52.212;-1.010;2022-11-06T03:33:40;99629.48;;;7.43;83.75
62946;BME280;52164;52.212;-1.010;2022-11-06T03:38:44;99623.30;;;7.32;83.76
62946;BME280;52164;52.212;-1.010;2022-11-06T03:41:21;99624.88;;;7.28;83.60
62946;BME280;52164;52.212;-1.010;2022-11-06T03:43:48;99617.81;;;7.21;83.85
62946;BME280;52164;52.212;-1.010;2022-11-06T03:46:19;99612.85;;;7.14;83.37
62946;BME280;52164;52.212;-1.010;2022-11-06T03:48:52;99606.45;;;7.08;83.58
62946;BME280;52164;52.212;-1.010;2022-11-06T03:51:22;99598.83;;;7.03;83.45
62946;BME280;52164;52.212;-1.010;2022-11-06T03:53:51;99596.88;;;6.99;83.71
62946;BME280;52164;52.212;-1.010;2022-11-06T03:56:21;99596.34;;;6.96;83.52
62946;BME280;52164;52.212;-1.010;2022-11-06T03:58:48;99602.37;;;6.93;83.74
62946;BME280;52164;52.212;-1.010;2022-11-06T04:01:17;99607.34;;;6.89;83.53
62946;BME280;52164;52.212;-1.010;2022-11-06T04:08:29;99606.63;;;6.83;83.32
62946;BME280;52164;52.212;-1.010;2022-11-06T04:09:05;99604.14;;;6.78;83.45
62946;BME280;52164;52.212;-1.010;2022-11-06T04:11:52;99598.98;;;6.74;83.32
62946;BME280;52164;52.212;-1.010;2022-11-06T04:14:41;99607.15;;;6.69;83.20
62946;BME280;52164;52.212;-1.010;2022-11-06T04:17:11;99603.60;;;6.65;83.16
62946;BME280;52164;52.212;-1.010;2022-11-06T04:19:40;99597.55;;;6.61;83.00
62946;BME280;52164;52.212;-1.010;2022-11-06T04:22:50;99597.02;;;6.56;83.29
62946;BME280;52164;52.212;-1.010;2022-11-06T04:25:28;99591.52;;;6.52;83.77
62946;BME280;52164;52.212;-1.010;2022-11-06T04:29:37;99590.63;;;6.50;83.84
62946;BME280;52164;52.212;-1.010;2022-11-06T04:31:19;99583.00;;;6.50;84.21
62946;BME280;52164;52.212;-1.010;2022-11-06T04:34:21;99571.66;;;6.52;84.40
62946;BME280;52164;52.212;-1.010;2022-11-06T04:37:06;99572.55;;;6.58;83.89
62946;BME280;52164;52.212;-1.010;2022-11-06T04:39:35;99566.70;;;6.63;83.81
62946;BME280;52164;52.212;-1.010;2022-11-06T04:42:27;99553.06;;;6.65;83.68
62946;BME280;52164;52.212;-1.010;2022-11-06T04:45:00;99540.14;;;6.67;83.78
62946;BME280;52164;52.212;-1.010;2022-11-06T04:47:28;99539.93;;;6.71;84.10
62946;BME280;52164;52.212;-1.010;2022-11-06T04:49:56;99531.08;;;6.71;84.04
62946;BME280;52164;52.212;-1.010;2022-11-06T04:52:25;99527.17;;;6.72;83.93
62946;BME280;52164;52.212;-1.010;2022-11-06T04:54:52;99529.83;;;6.73;84.27
62946;BME280;52164;52.212;-1.010;2022-11-06T04:57:17;99534.10;;;6.73;84.10
62946;BME280;52164;52.212;-1.010;2022-11-06T04:59:43;99533.38;;;6.72;83.86
62946;BME280;52164;52.212;-1.010;2022-11-06T05:02:09;99533.56;;;6.71;83.85
62946;BME280;52164;52.212;-1.010;2022-11-06T05:04:35;99534.09;;;6.72;84.07
62946;BME280;52164;52.212;-1.010;2022-11-06T05:07:00;99534.45;;;6.72;83.94
62946;BME280;52164;52.212;-1.010;2022-11-06T05:09:26;99535.70;;;6.72;83.75
62946;BME280;52164;52.212;-1.010;2022-11-06T05:11:51;99524.86;;;6.73;83.90
62946;BME280;52164;52.212;-1.010;2022-11-06T05:14:17;99519.55;;;6.73;83.57
62946;BME280;52164;52.212;-1.010;2022-11-06T05:16:42;99519.54;;;6.74;83.90
62946;BME280;52164;52.212;-1.010;2022-11-06T05:19:08;99514.58;;;6.75;84.03
62946;BME280;52164;52.212;-1.010;2022-11-06T05:21:33;99500.76;;;6.75;83.88
62946;BME280;52164;52.212;-1.010;2022-11-06T05:24:19;99502.35;;;6.73;83.85
62946;BME280;52164;52.212;-1.010;2022-11-06T05:26:44;99502.70;;;6.73;84.05
62946;BME280;52164;52.212;-1.010;2022-11-06T05:29:10;99494.02;;;6.73;84.12
62946;BME280;52164;52.212;-1.010;2022-11-06T05:31:37;99496.50;;;6.71;83.81
62946;BME280;52164;52.212;-1.010;2022-11-06T05:34:02;99498.27;;;6.69;83.84
62946;BME280;52164;52.212;-1.010;2022-11-06T05:36:28;99500.40;;;6.68;83.82
62946;BME280;52164;52.212;-1.010;2022-11-06T05:38:53;99497.39;;;6.68;83.92
62946;BME280;52164;52.212;-1.010;2022-11-06T05:41:19;99491.55;;;6.65;83.55
62946;BME280;52164;52.212;-1.010;2022-11-06T05:43:44;99491.35;;;6.64;83.71
62946;BME280;52164;52.212;-1.010;2022-11-06T05:46:10;99494.73;;;6.64;83.63
62946;BME280;52164;52.212;-1.010;2022-11-06T05:48:35;99494.71;;;6.63;83.25
62946;BME280;52164;52.212;-1.010;2022-11-06T05:51:03;99498.80;;;6.60;83.29
62946;BME280;52164;52.212;-1.010;2022-11-06T05:53:31;99494.91;;;6.57;83.46
62946;BME280;52164;52.212;-1.010;2022-11-06T05:55:57;99491.20;;;6.56;83.20
62946;BME280;52164;52.212;-1.010;2022-11-06T05:58:24;99485.52;;;6.52;83.22
62946;BME280;52164;52.212;-1.010;2022-11-06T06:00:49;99481.96;;;6.50;83.15
62946;BME280;52164;52.212;-1.010;2022-11-06T06:03:15;99482.85;;;6.48;83.55
62946;BME280;52164;52.212;-1.010;2022-11-06T06:05:40;99479.13;;;6.44;83.07
62946;BME280;52164;52.212;-1.010;2022-11-06T06:08:06;99480.19;;;6.41;83.06
62946;BME280;52164;52.212;-1.010;2022-11-06T06:10:31;99475.95;;;6.39;83.47
62946;BME280;52164;52.212;-1.010;2022-11-06T06:12:57;99472.92;;;6.34;83.10
62946;BME280;52164;52.212;-1.010;2022-11-06T06:15:22;99466.90;;;6.31;83.38
62946;BME280;52164;52.212;-1.010;2022-11-06T06:17:48;99462.81;;;6.31;83.60
62946;BME280;52164;52.212;-1.010;2022-11-06T06:20:13;99457.86;;;6.32;83.65
62946;BME280;52164;52.212;-1.010;2022-11-06T06:22:39;99450.95;;;6.32;83.72
62946;BME280;52164;52.212;-1.010;2022-11-06T06:25:04;99444.40;;;6.34;83.92
62946;BME280;52164;52.212;-1.010;2022-11-06T06:27:30;99441.73;;;6.37;83.50
62946;BME280;52164;52.212;-1.010;2022-11-06T06:29:56;99436.79;;;6.39;83.41
62946;BME280;52164;52.212;-1.010;2022-11-06T06:32:21;99434.48;;;6.39;83.13
62946;BME280;52164;52.212;-1.010;2022-11-06T06:34:47;99433.75;;;6.37;83.22
62946;BME280;52164;52.212;-1.010;2022-11-06T06:37:12;99429.69;;;6.34;83.00
62946;BME280;52164;52.212;-1.010;2022-11-06T06:39:38;99427.73;;;6.31;83.11
62946;BME280;52164;52.212;-1.010;2022-11-06T06:42:03;99424.89;;;6.26;83.19
62946;BME280;52164;52.212;-1.010;2022-11-06T06:44:29;99425.26;;;6.21;83.18
62946;BME280;52164;52.212;-1.010;2022-11-06T06:46:54;99424.55;;;6.19;83.39
62946;BME280;52164;52.212;-1.010;2022-11-06T06:49:20;99420.30;;;6.18;83.48
62946;BME280;52164;52.212;-1.010;2022-11-06T06:51:47;99415.67;;;6.20;83.56
62946;BME280;52164;52.212;-1.010;2022-11-06T06:54:13;99413.91;;;6.24;83.81
62946;BME280;52164;52.212;-1.010;2022-11-06T06:56:38;99406.12;;;6.29;83.76
62946;BME280;52164;52.212;-1.010;2022-11-06T06:59:04;99400.09;;;6.34;83.77
62946;BME280;52164;52.212;-1.010;2022-11-06T07:01:30;99397.61;;;6.39;83.62
62946;BME280;52164;52.212;-1.010;2022-11-06T07:03:56;99395.84;;;6.44;83.99
62946;BME280;52164;52.212;-1.010;2022-11-06T07:06:21;99392.28;;;6.47;83.52
62946;BME280;52164;52.212;-1.010;2022-11-06T07:08:47;99385.90;;;6.46;83.28
62946;BME280;52164;52.212;-1.010;2022-11-06T07:11:12;99383.07;;;6.45;83.08
62946;BME280;52164;52.212;-1.010;2022-11-06T07:13:38;99385.36;;;6.47;83.49
62946;BME280;52164;52.212;-1.010;2022-11-06T07:16:05;99382.36;;;6.50;83.70
62946;BME280;52164;52.212;-1.010;2022-11-06T07:18:32;99376.85;;;6.51;83.56
62946;BME280;52164;52.212;-1.010;2022-11-06T07:20:58;99375.08;;;6.53;83.59
62946;BME280;52164;52.212;-1.010;2022-11-06T07:23:23;99377.56;;;6.55;83.76
62946;BME280;52164;52.212;-1.010;2022-11-06T07:25:52;99375.42;;;6.57;83.73
62946;BME280;52164;52.212;-1.010;2022-11-06T07:28:18;99376.84;;;6.58;83.77
62946;BME280;52164;52.212;-1.010;2022-11-06T07:30:44;99374.89;;;6.61;83.77
62946;BME280;52164;52.212;-1.010;2022-11-06T07:33:11;99371.85;;;6.65;83.94
62946;BME280;52164;52.212;-1.010;2022-11-06T07:35:36;99369.73;;;6.68;83.81
62946;BME280;52164;52.212;-1.010;2022-11-06T07:38:03;99369.54;;;6.71;84.24
62946;BME280;52164;52.212;-1.010;2022-11-06T07:40:31;99370.41;;;6.78;84.43
62946;BME280;52164;52.212;-1.010;2022-11-06T07:43:02;99367.55;;;6.84;84.05
62946;BME280;52164;52.212;-1.010;2022-11-06T07:45:28;99368.60;;;6.90;84.11
62946;BME280;52164;52.212;-1.010;2022-11-06T07:47:55;99372.13;;;6.97;84.31
62946;BME280;52164;52.212;-1.010;2022-11-06T07:50:20;99383.44;;;7.04;84.41
62946;BME280;52164;52.212;-1.010;2022-11-06T07:52:46;99377.73;;;7.12;84.42
62946;BME280;52164;52.212;-1.010;2022-11-06T07:55:11;99364.92;;;7.18;84.76
62946;BME280;52164;52.212;-1.010;2022-11-06T07:57:37;99365.08;;;7.26;84.69
62946;BME280;52164;52.212;-1.010;2022-11-06T08:00:04;99357.94;;;7.33;84.74
62946;BME280;52164;52.212;-1.010;2022-11-06T08:02:30;99351.70;;;7.39;84.53
62946;BME280;52164;52.212;-1.010;2022-11-06T08:04:55;99353.27;;;7.45;84.95
62946;BME280;52164;52.212;-1.010;2022-11-06T08:07:20;99339.22;;;7.48;84.54
62946;BME280;52164;52.212;-1.010;2022-11-06T08:09:46;99341.66;;;7.54;84.80
62946;BME280;52164;52.212;-1.010;2022-11-06T08:12:11;99343.91;;;7.62;85.02
62946;BME280;52164;52.212;-1.010;2022-11-06T08:14:39;99349.20;;;7.69;85.47
62946;BME280;52164;52.212;-1.010;2022-11-06T08:17:05;99344.34;;;7.78;85.06
62946;BME280;52164;52.212;-1.010;2022-11-06T08:19:30;99342.84;;;7.86;85.20
62946;BME280;52164;52.212;-1.010;2022-11-06T08:21:55;99336.76;;;7.94;85.11
62946;BME280;52164;52.212;-1.010;2022-11-06T08:24:21;99324.75;;;8.04;85.22
62946;BME280;52164;52.212;-1.010;2022-11-06T08:26:46;99315.42;;;8.15;85.22
62946;BME280;52164;52.212;-1.010;2022-11-06T08:29:12;99316.22;;;8.25;84.95
62946;BME280;52164;52.212;-1.010;2022-11-06T08:31:37;99312.21;;;8.34;85.09
62946;BME280;52164;52.212;-1.010;2022-11-06T08:34:03;99313.56;;;8.44;85.53
62946;BME280;52164;52.212;-1.010;2022-11-06T08:36:28;99301.92;;;8.52;85.21
62946;BME280;52164;52.212;-1.010;2022-11-06T08:38:54;99304.50;;;8.60;85.12
62946;BME280;52164;52.212;-1.010;2022-11-06T08:41:20;99307.45;;;8.68;85.02
62946;BME280;52164;52.212;-1.010;2022-11-06T08:43:50;99298.33;;;8.72;84.97
62946;BME280;52164;52.212;-1.010;2022-11-06T08:46:15;99289.90;;;8.77;84.85
62946;BME280;52164;52.212;-1.010;2022-11-06T08:48:41;99278.30;;;8.79;84.95
62946;BME280;52164;52.212;-1.010;2022-11-06T08:51:06;99277.54;;;8.85;84.91
62946;BME280;52164;52.212;-1.010;2022-11-06T08:53:32;99277.45;;;8.91;85.12
62946;BME280;52164;52.212;-1.010;2022-11-06T08:55:57;99277.88;;;8.99;85.24
62946;BME280;52164;52.212;-1.010;2022-11-06T08:58:23;99279.56;;;9.06;84.70
62946;BME280;52164;52.212;-1.010;2022-11-06T09:00:48;99275.55;;;9.13;84.74
62946;BME280;52164;52.212;-1.010;2022-11-06T09:03:15;99274.02;;;9.21;84.95
62946;BME280;52164;52.212;-1.010;2022-11-06T09:05:43;99274.61;;;9.30;84.57
62946;BME280;52164;52.212;-1.010;2022-11-06T09:08:10;99281.41;;;9.39;84.69
62946;BME280;52164;52.212;-1.010;2022-11-06T09:10:37;99283.42;;;9.46;84.64
62946;BME280;52164;52.212;-1.010;2022-11-06T09:13:03;99277.05;;;9.56;84.78
62946;BME280;52164;52.212;-1.010;2022-11-06T09:15:29;99278.17;;;9.64;84.95
62946;BME280;52164;52.212;-1.010;2022-11-06T09:17:55;99283.05;;;9.71;84.95
62946;BME280;52164;52.212;-1.010;2022-11-06T09:20:21;99279.96;;;9.76;84.76
62946;BME280;52164;52.212;-1.010;2022-11-06T09:22:47;99279.71;;;9.79;84.81
62946;BME280;52164;52.212;-1.010;2022-11-06T09:25:14;99273.07;;;9.82;84.83
62946;BME280;52164;52.212;-1.010;2022-11-06T09:27:42;99278.33;;;9.88;85.04
62946;BME280;52164;52.212;-1.010;2022-11-06T09:30:09;99274.15;;;9.93;85.29
62946;BME280;52164;52.212;-1.010;2022-11-06T09:32:36;99273.15;;;9.98;85.09
62946;BME280;52164;52.212;-1.010;2022-11-06T09:35:02;99272.37;;;10.03;85.01
62946;BME280;52164;52.212;-1.010;2022-11-06T09:37:27;99274.40;;;10.09;85.38
62946;BME280;52164;52.212;-1.010;2022-11-06T09:39:52;99271.60;;;10.16;85.24
62946;BME280;52164;52.212;-1.010;2022-11-06T09:42:49;99264.39;;;10.20;85.18
62946;BME280;52164;52.212;-1.010;2022-11-06T09:45:19;99257.30;;;10.27;85.28
62946;BME280;52164;52.212;-1.010;2022-11-06T09:47:53;99256.33;;;10.32;85.15
62946;BME280;52164;52.212;-1.010;2022-11-06T09:50:26;99255.88;;;10.38;85.02
62946;BME280;52164;52.212;-1.010;2022-11-06T09:52:59;99256.12;;;10.44;85.23
62946;BME280;52164;52.212;-1.010;2022-11-06T09:55:32;99257.27;;;10.49;84.87
62946;BME280;52164;52.212;-1.010;2022-11-06T09:58:11;99245.11;;;10.50;84.77
62946;BME280;52164;52.212;-1.010;2022-11-06T10:00:39;99248.09;;;10.53;84.65
62946;BME280;52164;52.212;-1.010;2022-11-06T10:03:18;99247.68;;;10.56;84.66
62946;BME280;52164;52.212;-1.010;2022-11-06T10:05:46;99237.80;;;10.59;84.65
62946;BME280;52164;52.212;-1.010;2022-11-06T10:08:16;99244.61;;;10.58;84.62
62946;BME280;52164;52.212;-1.010;2022-11-06T10:13:19;99262.80;;;10.59;84.93
62946;BME280;52164;52.212;-1.010;2022-11-06T10:15:54;99264.73;;;10.60;84.77
62946;BME280;52164;52.212;-1.010;2022-11-06T10:23:55;99219.97;;;10.59;85.11
62946;BME280;52164;52.212;-1.010;2022-11-06T10:26:44;99225.77;;;10.63;85.52
62946;BME280;52164;52.212;-1.010;2022-11-06T10:29:18;99228.66;;;10.70;85.42
62946;BME280;52164;52.212;-1.010;2022-11-06T10:32:22;99211.92;;;10.76;85.39
62946;BME280;52164;52.212;-1.010;2022-11-06T10:34:49;99201.81;;;10.82;85.59
62946;BME280;52164;52.212;-1.010;2022-11-06T10:37:23;99200.08;;;10.88;85.92
62946;BME280;52164;52.212;-1.010;2022-11-06T10:39:51;99194.69;;;10.97;85.98
62946;BME280;52164;52.212;-1.010;2022-11-06T10:42:21;99185.92;;;11.05;86.30
62946;BME280;52164;52.212;-1.010;2022-11-06T10:47:20;99174.98;;;11.23;86.27
62946;BME280;52164;52.212;-1.010;2022-11-06T10:49:50;99168.48;;;11.33;86.37
62946;BME280;52164;52.212;-1.010;2022-11-06T10:52:24;99157.39;;;11.41;86.17
62946;BME280;52164;52.212;-1.010;2022-11-06T10:57:13;99156.29;;;11.50;86.17
62946;BME280;52164;52.212;-1.010;2022-11-06T10:57:44;99164.05;;;11.61;86.08
62946;BME280;52164;52.212;-1.010;2022-11-06T11:00:12;99156.63;;;11.71;85.78
62946;BME280;52164;52.212;-1.010;2022-11-06T11:02:44;99156.41;;;11.79;85.75
62946;BME280;52164;52.212;-1.010;2022-11-06T11:05:14;99151.52;;;11.89;85.81
62946;BME280;52164;52.212;-1.010;2022-11-06T11:07:41;99145.27;;;11.96;85.72
62946;BME280;52164;52.212;-1.010;2022-11-06T11:10:26;99146.83;;;12.04;85.44
62946;BME280;52164;52.212;-1.010;2022-11-06T11:12:53;99135.07;;;12.16;85.34
62946;BME280;52164;52.212;-1.010;2022-11-06T11:15:21;99130.62;;;12.27;85.05
62946;BME280;52164;52.212;-1.010;2022-11-06T11:18:14;99140.42;;;12.34;84.93
62946;BME280;52164;52.212;-1.010;2022-11-06T11:20:43;99144.63;;;12.38;84.63
62946;BME280;52164;52.212;-1.010;2022-11-06T11:23:20;99142.97;;;12.40;84.53
62946;BME280;52164;52.212;-1.010;2022-11-06T11:25:52;99134.86;;;12.41;84.43
62946;BME280;52164;52.212;-1.010;2022-11-06T11:28:25;99131.10;;;12.41;84.62
62946;BME280;52164;52.212;-1.010;2022-11-06T11:30:53;99125.84;;;12.44;84.36
62946;BME280;52164;52.212;-1.010;2022-11-06T11:33:22;99123.63;;;12.46;84.52
62946;BME280;52164;52.212;-1.010;2022-11-06T11:35:48;99123.13;;;12.50;84.51
62946;BME280;52164;52.212;-1.010;2022-11-06T11:38:17;99126.84;;;12.52;84.55
62946;BME280;52164;52.212;-1.010;2022-11-06T11:40:44;99119.98;;;12.54;84.60
62946;BME280;52164;52.212;-1.010;2022-11-06T11:43:27;99115.98;;;12.56;84.47
62946;BME280;52164;52.212;-1.010;2022-11-06T11:46:15;99104.26;;;12.59;84.30
62946;BME280;52164;52.212;-1.010;2022-11-06T11:51:12;99085.63;;;12.72;84.21
62946;BME280;52164;52.212;-1.010;2022-11-06T11:53:40;99066.33;;;12.76;83.99
62946;BME280;52164;52.212;-1.010;2022-11-06T11:56:06;99068.13;;;12.87;83.77
62946;BME280;52164;52.212;-1.010;2022-11-06T11:58:37;99067.54;;;13.00;83.74
62946;BME280;52164;52.212;-1.010;2022-11-06T12:01:04;99059.48;;;13.11;83.18
62946;BME280;52164;52.212;-1.010;2022-11-06T12:03:35;99044.49;;;13.19;82.94
62946;BME280;52164;52.212;-1.010;2022-11-06T12:06:08;99043.33;;;13.22;82.68
62946;BME280;52164;52.212;-1.010;2022-11-06T12:08:34;99042.61;;;13.22;82.59
62946;BME280;52164;52.212;-1.010;2022-11-06T12:11:03;99041.38;;;13.21;82.05
62946;BME280;52164;52.212;-1.010;2022-11-06T12:13:29;99031.27;;;13.18;82.09
62946;BME280;52164;52.212;-1.010;2022-11-06T12:16:14;99015.58;;;13.21;81.94
62946;BME280;52164;52.212;-1.010;2022-11-06T12:18:45;99011.35;;;13.25;81.77
62946;BME280;52164;52.212;-1.010;2022-11-06T12:21:20;99011.66;;;13.31;81.80
62946;BME280;52164;52.212;-1.010;2022-11-06T12:26:43;99006.79;;;13.48;81.70
62946;BME280;52164;52.212;-1.010;2022-11-06T12:29:13;99000.20;;;13.57;81.48
62946;BME280;52164;52.212;-1.010;2022-11-06T12:33:09;98995.65;;;13.73;81.37
62946;BME280;52164;52.212;-1.010;2022-11-06T12:35:28;98987.15;;;13.94;80.95
62946;BME280;52164;52.212;-1.010;2022-11-06T12:40:21;98957.90;;;14.04;80.55
62946;BME280;52164;52.212;-1.010;2022-11-06T12:43:21;98945.52;;;13.95;80.30
62946;BME280;52164;52.212;-1.010;2022-11-06T12:49:13;98933.44;;;13.78;80.09
62946;BME280;52164;52.212;-1.010;2022-11-06T12:52:21;98943.05;;;13.75;80.02
62946;BME280;52164;52.212;-1.010;2022-11-06T13:00:11;98944.66;;;13.70;80.19
62946;BME280;52164;52.212;-1.010;2022-11-06T13:05:50;98935.44;;;13.48;80.09
62946;BME280;52164;52.212;-1.010;2022-11-06T13:14:40;98916.55;;;13.21;80.65
62946;BME280;52164;52.212;-1.010;2022-11-06T13:19:28;98909.83;;;13.03;80.97
62946;BME280;52164;52.212;-1.010;2022-11-06T13:22:08;98905.15;;;12.94;81.06
62946;BME280;52164;52.212;-1.010;2022-11-06T13:25:06;98908.46;;;12.86;81.41
62946;BME280;52164;52.212;-1.010;2022-11-06T13:27:42;98903.66;;;12.75;81.66
62946;BME280;52164;52.212;-1.010;2022-11-06T13:30:18;98906.11;;;12.66;81.79
62946;BME280;52164;52.212;-1.010;2022-11-06T13:32:52;98903.23;;;12.55;82.02
62946;BME280;52164;52.212;-1.010;2022-11-06T13:35:20;98896.46;;;12.44;82.35
62946;BME280;52164;52.212;-1.010;2022-11-06T13:37:47;98893.14;;;12.36;82.73
62946;BME280;52164;52.212;-1.010;2022-11-06T13:40:19;98895.83;;;12.31;82.99
62946;BME280;52164;52.212;-1.010;2022-11-06T13:42:54;98898.18;;;12.24;83.00
62946;BME280;52164;52.212;-1.010;2022-11-06T13:45:22;98897.85;;;12.18;83.46
62946;BME280;52164;52.212;-1.010;2022-11-06T13:47:59;98895.71;;;12.12;83.67
62946;BME280;52164;52.212;-1.010;2022-11-06T13:53:09;98889.90;;;11.98;83.66
62946;BME280;52164;52.212;-1.010;2022-11-06T13:57:10;98889.84;;;11.88;83.66
62946;BME280;52164;52.212;-1.010;2022-11-06T13:59:15;98883.08;;;11.69;83.31
62946;BME280;52164;52.212;-1.010;2022-11-06T14:05:58;98870.20;;;11.27;83.46
62946;BME280;52164;52.212;-1.010;2022-11-06T14:06:26;98875.49;;;11.48;83.23
62946;BME280;52164;52.212;-1.010;2022-11-06T14:07:38;98823.11;;;11.13;83.95
62946;BME280;52164;52.212;-1.010;2022-11-06T14:10:05;98825.94;;;11.08;83.92
62946;BME280;52164;52.212;-1.010;2022-11-06T14:12:45;98833.16;;;11.05;83.93
62946;BME280;52164;52.212;-1.010;2022-11-06T14:15:21;98855.12;;;11.05;84.09
62946;BME280;52164;52.212;-1.010;2022-11-06T14:17:57;98838.52;;;11.05;83.81
62946;BME280;52164;52.212;-1.010;2022-11-06T14:20:39;98838.04;;;11.03;83.78